Terminal Aerodrome Forecast
Issued by NWS

Home | Current Version | Previous Version | Graphics & Text | Print | Product List | Glossary On
Versions: 1 2 3 4 5 6 7 8 9 10 11 12 13 14 15 16 17 18 19 20 21
000
FTUS43 KGRB 080900 AAA
TAFATW
TAF AMD
KATW 080927Z 0809/0906 25006KT P6SM VCSH SCT008 SCT025 OVC070
      TEMPO 0809/0811 5SM -SHRA BKN008 BKN025
     FM081200 28008KT 6SM BR SCT015 SCT100
     FM081700 31008KT P6SM VCSH SCT020 BKN050
     FM082300 30005KT P6SM SCT050 BKN100=

USA.gov is the U.S. government's official web portal to all federal, state and local government web resources and services.